sensor_id;sensor_type;location;lat;lon;timestamp;temperature;humidity
81488;DHT22;70897;52.464;13.428;2023-12-22T00:01:45;5.10;99.90
81488;DHT22;70897;52.464;13.428;2023-12-22T00:04:30;4.90;99.90
81488;DHT22;70897;52.464;13.428;2023-12-22T00:07:15;4.90;99.90
81488;DHT22;70897;52.464;13.428;2023-12-22T00:10:00;4.90;99.90
81488;DHT22;70897;52.464;13.428;2023-12-22T00:12:46;4.80;99.90
81488;DHT22;70897;52.464;13.428;2023-12-22T00:15:31;4.70;99.90
81488;DHT22;70897;52.464;13.428;2023-12-22T00:18:16;4.60;99.90
81488;DHT22;70897;52.464;13.428;2023-12-22T00:21:01;4.60;99.90
81488;DHT22;70897;52.464;13.428;2023-12-22T00:23:46;4.60;99.90
81488;DHT22;70897;52.464;13.428;2023-12-22T00:26:31;4.50;99.90
81488;DHT22;70897;52.464;13.428;2023-12-22T00:29:16;4.60;99.90
81488;DHT22;70897;52.464;13.428;2023-12-22T00:32:01;4.60;99.90
81488;DHT22;70897;52.464;13.428;2023-12-22T00:34:46;4.70;99.90
81488;DHT22;70897;52.464;13.428;2023-12-22T00:37:31;4.60;99.90
81488;DHT22;70897;52.464;13.428;2023-12-22T00:40:16;4.70;99.90
81488;DHT22;70897;52.464;13.428;2023-12-22T00:43:01;4.80;99.90
81488;DHT22;70897;52.464;13.428;2023-12-22T00:45:46;4.90;99.50
81488;DHT22;70897;52.464;13.428;2023-12-22T00:48:31;4.90;99.90
81488;DHT22;70897;52.464;13.428;2023-12-22T00:51:16;5.00;98.90
81488;DHT22;70897;52.464;13.428;2023-12-22T00:54:02;5.00;99.80
81488;DHT22;70897;52.464;13.428;2023-12-22T00:56:47;5.00;99.70
81488;DHT22;70897;52.464;13.428;2023-12-22T00:59:32;5.00;99.90
81488;DHT22;70897;52.464;13.428;2023-12-22T01:02:18;5.00;99.90
81488;DHT22;70897;52.464;13.428;2023-12-22T01:05:03;4.90;99.90
81488;DHT22;70897;52.464;13.428;2023-12-22T01:07:47;4.90;99.90
81488;DHT22;70897;52.464;13.428;2023-12-22T01:10:32;4.80;99.90
81488;DHT22;70897;52.464;13.428;2023-12-22T01:13:18;4.70;99.90
81488;DHT22;70897;52.464;13.428;2023-12-22T01:16:03;4.70;99.90
81488;DHT22;70897;52.464;13.428;2023-12-22T01:18:48;4.60;99.90
81488;DHT22;70897;52.464;13.428;2023-12-22T01:21:33;4.60;99.90
81488;DHT22;70897;52.464;13.428;2023-12-22T01:24:18;4.70;99.90
81488;DHT22;70897;52.464;13.428;2023-12-22T01:27:03;4.70;99.90
81488;DHT22;70897;52.464;13.428;2023-12-22T01:29:48;4.70;99.90
81488;DHT22;70897;52.464;13.428;2023-12-22T01:32:33;4.70;99.90
81488;DHT22;70897;52.464;13.428;2023-12-22T01:35:21;4.70;99.90
81488;DHT22;70897;52.464;13.428;2023-12-22T01:38:06;4.80;99.90
81488;DHT22;70897;52.464;13.428;2023-12-22T01:40:51;4.70;99.90
81488;DHT22;70897;52.464;13.428;2023-12-22T01:43:36;4.70;99.90
81488;DHT22;70897;52.464;13.428;2023-12-22T01:46:21;4.70;99.90
81488;DHT22;70897;52.464;13.428;2023-12-22T01:49:07;4.60;99.90
81488;DHT22;70897;52.464;13.428;2023-12-22T01:51:53;4.60;99.90
81488;DHT22;70897;52.464;13.428;2023-12-22T01:54:38;4.60;99.90
81488;DHT22;70897;52.464;13.428;2023-12-22T01:57:23;4.60;99.90
81488;DHT22;70897;52.464;13.428;2023-12-22T02:00:09;4.50;99.90
81488;DHT22;70897;52.464;13.428;2023-12-22T02:02:57;4.50;99.90
81488;DHT22;70897;52.464;13.428;2023-12-22T02:05:43;4.50;99.90
81488;DHT22;70897;52.464;13.428;2023-12-22T02:08:31;4.50;99.90
81488;DHT22;70897;52.464;13.428;2023-12-22T02:11:17;4.60;99.90
81488;DHT22;70897;52.464;13.428;2023-12-22T02:14:02;4.60;99.90
81488;DHT22;70897;52.464;13.428;2023-12-22T02:17:10;4.60;99.90
81488;DHT22;70897;52.464;13.428;2023-12-22T02:19:57;4.60;99.90
81488;DHT22;70897;52.464;13.428;2023-12-22T02:22:43;4.50;99.90
81488;DHT22;70897;52.464;13.428;2023-12-22T02:25:31;4.50;99.90
81488;DHT22;70897;52.464;13.428;2023-12-22T02:28:19;4.50;99.90
81488;DHT22;70897;52.464;13.428;2023-12-22T02:31:45;4.50;99.90
81488;DHT22;70897;52.464;13.428;2023-12-22T02:34:28;4.50;99.90
81488;DHT22;70897;52.464;13.428;2023-12-22T02:37:15;4.50;99.90
81488;DHT22;70897;52.464;13.428;2023-12-22T02:40:01;4.50;99.90
81488;DHT22;70897;52.464;13.428;2023-12-22T02:42:47;4.40;99.90
81488;DHT22;70897;52.464;13.428;2023-12-22T02:45:32;4.50;99.90
81488;DHT22;70897;52.464;13.428;2023-12-22T02:48:18;4.50;99.90
81488;DHT22;70897;52.464;13.428;2023-12-22T02:51:03;4.50;99.90
81488;DHT22;70897;52.464;13.428;2023-12-22T02:53:48;4.40;99.90
81488;DHT22;70897;52.464;13.428;2023-12-22T02:56:33;4.40;99.90
81488;DHT22;70897;52.464;13.428;2023-12-22T02:59:18;4.30;99.90
81488;DHT22;70897;52.464;13.428;2023-12-22T03:02:03;4.30;99.90
81488;DHT22;70897;52.464;13.428;2023-12-22T03:04:48;4.30;99.90
81488;DHT22;70897;52.464;13.428;2023-12-22T03:07:34;4.20;99.90
81488;DHT22;70897;52.464;13.428;2023-12-22T03:10:19;4.20;99.90
81488;DHT22;70897;52.464;13.428;2023-12-22T03:13:04;4.30;99.90
81488;DHT22;70897;52.464;13.428;2023-12-22T03:15:49;4.30;99.90
81488;DHT22;70897;52.464;13.428;2023-12-22T03:18:34;4.30;99.90
81488;DHT22;70897;52.464;13.428;2023-12-22T03:21:19;4.30;99.90
81488;DHT22;70897;52.464;13.428;2023-12-22T03:24:04;4.30;99.90
81488;DHT22;70897;52.464;13.428;2023-12-22T03:26:49;4.20;99.90
81488;DHT22;70897;52.464;13.428;2023-12-22T03:29:34;4.20;99.90
81488;DHT22;70897;52.464;13.428;2023-12-22T03:32:19;4.10;99.90
81488;DHT22;70897;52.464;13.428;2023-12-22T03:35:04;4.20;99.90
81488;DHT22;70897;52.464;13.428;2023-12-22T03:37:50;4.10;99.90
81488;DHT22;70897;52.464;13.428;2023-12-22T03:40:35;4.10;99.90
81488;DHT22;70897;52.464;13.428;2023-12-22T03:43:20;4.10;99.90
81488;DHT22;70897;52.464;13.428;2023-12-22T03:46:05;4.10;99.90
81488;DHT22;70897;52.464;13.428;2023-12-22T03:48:51;4.20;99.90
81488;DHT22;70897;52.464;13.428;2023-12-22T03:51:36;4.10;99.90
81488;DHT22;70897;52.464;13.428;2023-12-22T03:54:22;4.20;99.90
81488;DHT22;70897;52.464;13.428;2023-12-22T03:57:07;4.20;99.90
81488;DHT22;70897;52.464;13.428;2023-12-22T03:59:52;4.30;99.90
81488;DHT22;70897;52.464;13.428;2023-12-22T04:02:37;4.40;99.90
81488;DHT22;70897;52.464;13.428;2023-12-22T04:05:22;4.40;99.90
81488;DHT22;70897;52.464;13.428;2023-12-22T04:08:07;4.40;99.90
81488;DHT22;70897;52.464;13.428;2023-12-22T04:10:52;4.40;99.90
81488;DHT22;70897;52.464;13.428;2023-12-22T04:13:37;4.50;99.90
81488;DHT22;70897;52.464;13.428;2023-12-22T04:16:22;4.50;99.90
81488;DHT22;70897;52.464;13.428;2023-12-22T04:19:07;4.50;99.90
81488;DHT22;70897;52.464;13.428;2023-12-22T04:21:52;4.40;99.90
81488;DHT22;70897;52.464;13.428;2023-12-22T04:24:37;4.30;99.90
81488;DHT22;70897;52.464;13.428;2023-12-22T04:27:22;4.20;99.90
81488;DHT22;70897;52.464;13.428;2023-12-22T04:30:08;4.20;99.90
81488;DHT22;70897;52.464;13.428;2023-12-22T04:32:53;4.00;99.90
81488;DHT22;70897;52.464;13.428;2023-12-22T04:35:38;3.90;99.90
81488;DHT22;70897;52.464;13.428;2023-12-22T04:38:23;3.80;99.90
81488;DHT22;70897;52.464;13.428;2023-12-22T04:41:08;3.70;99.90
81488;DHT22;70897;52.464;13.428;2023-12-22T04:43:53;3.60;99.90
81488;DHT22;70897;52.464;13.428;2023-12-22T04:46:38;3.60;99.90
81488;DHT22;70897;52.464;13.428;2023-12-22T04:49:24;3.60;99.90
81488;DHT22;70897;52.464;13.428;2023-12-22T04:52:09;3.70;99.90
81488;DHT22;70897;52.464;13.428;2023-12-22T04:54:57;3.70;99.90
81488;DHT22;70897;52.464;13.428;2023-12-22T04:57:42;3.70;99.90
81488;DHT22;70897;52.464;13.428;2023-12-22T05:00:27;3.70;99.90
81488;DHT22;70897;52.464;13.428;2023-12-22T05:03:12;3.70;99.90
81488;DHT22;70897;52.464;13.428;2023-12-22T05:05:58;3.70;99.90
81488;DHT22;70897;52.464;13.428;2023-12-22T05:08:43;3.60;99.90
81488;DHT22;70897;52.464;13.428;2023-12-22T05:11:28;3.40;99.90
81488;DHT22;70897;52.464;13.428;2023-12-22T05:14:13;3.30;99.90
81488;DHT22;70897;52.464;13.428;2023-12-22T05:16:58;3.20;99.90
81488;DHT22;70897;52.464;13.428;2023-12-22T05:19:43;3.10;99.90
81488;DHT22;70897;52.464;13.428;2023-12-22T05:22:28;3.00;99.90
81488;DHT22;70897;52.464;13.428;2023-12-22T05:25:15;2.90;99.90
81488;DHT22;70897;52.464;13.428;2023-12-22T05:28:00;2.90;99.90
81488;DHT22;70897;52.464;13.428;2023-12-22T05:30:45;2.90;99.90
81488;DHT22;70897;52.464;13.428;2023-12-22T05:33:30;2.90;99.90
81488;DHT22;70897;52.464;13.428;2023-12-22T05:36:15;3.00;99.90
81488;DHT22;70897;52.464;13.428;2023-12-22T05:39:00;3.00;99.90
81488;DHT22;70897;52.464;13.428;2023-12-22T05:41:45;3.00;99.90
81488;DHT22;70897;52.464;13.428;2023-12-22T05:44:30;2.90;99.90
81488;DHT22;70897;52.464;13.428;2023-12-22T05:47:16;3.00;99.90
81488;DHT22;70897;52.464;13.428;2023-12-22T05:50:01;2.90;99.90
81488;DHT22;70897;52.464;13.428;2023-12-22T05:52:46;2.80;99.90
81488;DHT22;70897;52.464;13.428;2023-12-22T05:55:31;2.80;99.90
81488;DHT22;70897;52.464;13.428;2023-12-22T05:58:16;2.80;99.90
81488;DHT22;70897;52.464;13.428;2023-12-22T06:01:01;2.80;99.90
81488;DHT22;70897;52.464;13.428;2023-12-22T06:03:46;2.80;99.90
81488;DHT22;70897;52.464;13.428;2023-12-22T06:06:31;2.80;99.90
81488;DHT22;70897;52.464;13.428;2023-12-22T06:09:16;2.80;99.90
81488;DHT22;70897;52.464;13.428;2023-12-22T06:12:04;2.90;99.90
81488;DHT22;70897;52.464;13.428;2023-12-22T06:14:49;3.00;99.90
81488;DHT22;70897;52.464;13.428;2023-12-22T06:17:34;3.00;99.90
81488;DHT22;70897;52.464;13.428;2023-12-22T06:20:19;3.00;99.90
81488;DHT22;70897;52.464;13.428;2023-12-22T06:23:04;3.00;99.90
81488;DHT22;70897;52.464;13.428;2023-12-22T06:25:49;2.90;99.90
81488;DHT22;70897;52.464;13.428;2023-12-22T06:28:34;2.90;99.90
81488;DHT22;70897;52.464;13.428;2023-12-22T06:31:21;2.90;99.90
81488;DHT22;70897;52.464;13.428;2023-12-22T06:34:06;2.80;99.90
81488;DHT22;70897;52.464;13.428;2023-12-22T06:36:51;2.80;99.90
81488;DHT22;70897;52.464;13.428;2023-12-22T06:39:36;2.80;99.90
81488;DHT22;70897;52.464;13.428;2023-12-22T06:42:21;2.80;99.90
81488;DHT22;70897;52.464;13.428;2023-12-22T06:45:07;2.90;99.90
81488;DHT22;70897;52.464;13.428;2023-12-22T06:47:52;3.00;99.90
81488;DHT22;70897;52.464;13.428;2023-12-22T06:50:37;3.00;99.90
81488;DHT22;70897;52.464;13.428;2023-12-22T06:53:24;3.00;99.90
81488;DHT22;70897;52.464;13.428;2023-12-22T06:56:35;2.90;99.90
81488;DHT22;70897;52.464;13.428;2023-12-22T06:59:20;2.90;99.90
81488;DHT22;70897;52.464;13.428;2023-12-22T07:02:05;2.90;99.90
81488;DHT22;70897;52.464;13.428;2023-12-22T07:08:08;3.00;99.90
81488;DHT22;70897;52.464;13.428;2023-12-22T07:10:53;3.10;99.90
81488;DHT22;70897;52.464;13.428;2023-12-22T07:13:38;3.20;99.90
81488;DHT22;70897;52.464;13.428;2023-12-22T07:16:23;3.20;99.90
81488;DHT22;70897;52.464;13.428;2023-12-22T07:19:08;3.20;99.90
81488;DHT22;70897;52.464;13.428;2023-12-22T07:21:53;3.20;99.90
81488;DHT22;70897;52.464;13.428;2023-12-22T07:24:38;3.20;99.90
81488;DHT22;70897;52.464;13.428;2023-12-22T07:27:23;3.20;99.90
81488;DHT22;70897;52.464;13.428;2023-12-22T07:30:09;3.20;99.90
81488;DHT22;70897;52.464;13.428;2023-12-22T07:32:56;3.10;99.90
81488;DHT22;70897;52.464;13.428;2023-12-22T07:35:41;3.20;99.90
81488;DHT22;70897;52.464;13.428;2023-12-22T07:38:26;3.20;99.90
81488;DHT22;70897;52.464;13.428;2023-12-22T07:41:11;3.20;99.90
81488;DHT22;70897;52.464;13.428;2023-12-22T07:43:56;3.30;99.90
81488;DHT22;70897;52.464;13.428;2023-12-22T07:46:41;3.30;99.90
81488;DHT22;70897;52.464;13.428;2023-12-22T07:49:26;3.30;99.90
81488;DHT22;70897;52.464;13.428;2023-12-22T07:52:11;3.50;99.90
81488;DHT22;70897;52.464;13.428;2023-12-22T07:54:56;3.60;99.90
81488;DHT22;70897;52.464;13.428;2023-12-22T07:57:41;3.70;99.90
81488;DHT22;70897;52.464;13.428;2023-12-22T08:00:26;3.80;99.90
81488;DHT22;70897;52.464;13.428;2023-12-22T08:03:12;3.70;99.90
81488;DHT22;70897;52.464;13.428;2023-12-22T08:05:57;3.70;99.90
81488;DHT22;70897;52.464;13.428;2023-12-22T08:08:42;3.70;99.90
81488;DHT22;70897;52.464;13.428;2023-12-22T08:11:28;3.70;99.90
81488;DHT22;70897;52.464;13.428;2023-12-22T08:14:13;3.70;99.90
81488;DHT22;70897;52.464;13.428;2023-12-22T08:16:58;3.70;99.90
81488;DHT22;70897;52.464;13.428;2023-12-22T08:19:43;3.70;99.90
81488;DHT22;70897;52.464;13.428;2023-12-22T08:22:28;3.70;99.90
81488;DHT22;70897;52.464;13.428;2023-12-22T08:25:13;3.90;99.90
81488;DHT22;70897;52.464;13.428;2023-12-22T08:27:59;4.10;99.90
81488;DHT22;70897;52.464;13.428;2023-12-22T08:30:44;4.00;99.90
81488;DHT22;70897;52.464;13.428;2023-12-22T08:33:29;4.00;99.90
81488;DHT22;70897;52.464;13.428;2023-12-22T08:36:14;3.90;99.90
81488;DHT22;70897;52.464;13.428;2023-12-22T08:38:59;3.90;99.90
81488;DHT22;70897;52.464;13.428;2023-12-22T08:41:45;3.90;99.90
81488;DHT22;70897;52.464;13.428;2023-12-22T08:44:30;3.80;99.90
81488;DHT22;70897;52.464;13.428;2023-12-22T08:47:15;3.90;99.90
81488;DHT22;70897;52.464;13.428;2023-12-22T08:50:00;4.50;99.90
81488;DHT22;70897;52.464;13.428;2023-12-22T08:52:48;5.00;99.90
81488;DHT22;70897;52.464;13.428;2023-12-22T08:55:33;5.70;99.90
81488;DHT22;70897;52.464;13.428;2023-12-22T08:58:18;6.00;99.90
81488;DHT22;70897;52.464;13.428;2023-12-22T09:01:03;6.50;99.90
81488;DHT22;70897;52.464;13.428;2023-12-22T09:03:48;6.50;99.90
81488;DHT22;70897;52.464;13.428;2023-12-22T09:06:34;6.30;99.90
81488;DHT22;70897;52.464;13.428;2023-12-22T09:09:19;6.10;99.90
81488;DHT22;70897;52.464;13.428;2023-12-22T09:12:06;6.50;99.90
81488;DHT22;70897;52.464;13.428;2023-12-22T09:14:51;6.30;99.90
81488;DHT22;70897;52.464;13.428;2023-12-22T09:17:36;6.50;99.90
81488;DHT22;70897;52.464;13.428;2023-12-22T09:20:22;6.90;99.90
81488;DHT22;70897;52.464;13.428;2023-12-22T09:23:07;7.50;96.60
81488;DHT22;70897;52.464;13.428;2023-12-22T09:25:54;7.30;96.20
81488;DHT22;70897;52.464;13.428;2023-12-22T09:28:40;7.10;96.20
81488;DHT22;70897;52.464;13.428;2023-12-22T09:31:25;6.90;97.70
81488;DHT22;70897;52.464;13.428;2023-12-22T09:34:09;7.20;96.20
81488;DHT22;70897;52.464;13.428;2023-12-22T09:36:55;7.10;94.10
81488;DHT22;70897;52.464;13.428;2023-12-22T09:39:41;7.70;93.50
81488;DHT22;70897;52.464;13.428;2023-12-22T09:42:26;8.40;90.50
81488;DHT22;70897;52.464;13.428;2023-12-22T09:45:11;8.40;89.50
81488;DHT22;70897;52.464;13.428;2023-12-22T09:47:59;8.60;91.10
81488;DHT22;70897;52.464;13.428;2023-12-22T09:50:44;8.90;83.00
81488;DHT22;70897;52.464;13.428;2023-12-22T09:53:31;9.00;85.00
81488;DHT22;70897;52.464;13.428;2023-12-22T09:56:16;8.40;83.50
81488;DHT22;70897;52.464;13.428;2023-12-22T09:59:02;7.80;85.90
81488;DHT22;70897;52.464;13.428;2023-12-22T10:01:48;7.40;88.70
81488;DHT22;70897;52.464;13.428;2023-12-22T10:04:36;8.00;86.80
81488;DHT22;70897;52.464;13.428;2023-12-22T10:07:22;8.50;88.00
81488;DHT22;70897;52.464;13.428;2023-12-22T10:10:08;8.80;82.50
81488;DHT22;70897;52.464;13.428;2023-12-22T10:12:54;8.90;84.60
81488;DHT22;70897;52.464;13.428;2023-12-22T10:15:40;8.90;79.70
81488;DHT22;70897;52.464;13.428;2023-12-22T10:18:26;8.50;80.20
81488;DHT22;70897;52.464;13.428;2023-12-22T10:21:11;7.80;83.60
81488;DHT22;70897;52.464;13.428;2023-12-22T10:23:57;7.80;84.40
81488;DHT22;70897;52.464;13.428;2023-12-22T10:26:42;8.20;83.30
81488;DHT22;70897;52.464;13.428;2023-12-22T10:29:27;10.10;78.00
81488;DHT22;70897;52.464;13.428;2023-12-22T10:32:13;11.10;69.00
81488;DHT22;70897;52.464;13.428;2023-12-22T10:34:59;12.00;66.30
81488;DHT22;70897;52.464;13.428;2023-12-22T10:37:45;12.50;59.90
81488;DHT22;70897;52.464;13.428;2023-12-22T10:40:31;12.80;57.00
81488;DHT22;70897;52.464;13.428;2023-12-22T10:43:16;11.10;59.70
81488;DHT22;70897;52.464;13.428;2023-12-22T10:46:01;9.70;64.70
81488;DHT22;70897;52.464;13.428;2023-12-22T10:48:46;11.00;64.50
81488;DHT22;70897;52.464;13.428;2023-12-22T10:51:31;11.40;61.10
81488;DHT22;70897;52.464;13.428;2023-12-22T10:54:18;10.90;61.50
81488;DHT22;70897;52.464;13.428;2023-12-22T10:57:03;11.60;60.90
81488;DHT22;70897;52.464;13.428;2023-12-22T10:59:48;12.00;58.80
81488;DHT22;70897;52.464;13.428;2023-12-22T11:02:35;12.10;58.70
81488;DHT22;70897;52.464;13.428;2023-12-22T11:05:21;11.30;58.60
81488;DHT22;70897;52.464;13.428;2023-12-22T11:08:11;12.20;58.50
81488;DHT22;70897;52.464;13.428;2023-12-22T11:10:58;12.60;56.00
81488;DHT22;70897;52.464;13.428;2023-12-22T11:13:43;12.80;55.20
81488;DHT22;70897;52.464;13.428;2023-12-22T11:16:30;12.20;55.90
81488;DHT22;70897;52.464;13.428;2023-12-22T11:19:16;10.30;59.30
81488;DHT22;70897;52.464;13.428;2023-12-22T11:22:04;10.20;64.90
81488;DHT22;70897;52.464;13.428;2023-12-22T11:24:51;9.70;65.20
81488;DHT22;70897;52.464;13.428;2023-12-22T11:27:37;10.30;64.90
81488;DHT22;70897;52.464;13.428;2023-12-22T11:30:22;11.90;61.50
81488;DHT22;70897;52.464;13.428;2023-12-22T11:33:09;13.40;55.60
81488;DHT22;70897;52.464;13.428;2023-12-22T11:35:56;13.90;53.20
81488;DHT22;70897;52.464;13.428;2023-12-22T11:38:41;13.70;52.20
81488;DHT22;70897;52.464;13.428;2023-12-22T11:41:30;13.90;51.00
81488;DHT22;70897;52.464;13.428;2023-12-22T11:44:17;14.10;50.30
81488;DHT22;70897;52.464;13.428;2023-12-22T11:47:07;14.10;51.10
81488;DHT22;70897;52.464;13.428;2023-12-22T11:49:52;14.30;50.10
81488;DHT22;70897;52.464;13.428;2023-12-22T11:52:38;13.40;52.50
81488;DHT22;70897;52.464;13.428;2023-12-22T11:58:47;11.10;59.50
81488;DHT22;70897;52.464;13.428;2023-12-22T12:01:43;12.30;56.20
81488;DHT22;70897;52.464;13.428;2023-12-22T12:04:28;11.10;59.60
81488;DHT22;70897;52.464;13.428;2023-12-22T12:07:39;9.80;62.40
81488;DHT22;70897;52.464;13.428;2023-12-22T12:13:23;9.40;66.50
81488;DHT22;70897;52.464;13.428;2023-12-22T12:16:13;10.50;63.10
81488;DHT22;70897;52.464;13.428;2023-12-22T12:18:59;11.10;60.10
81488;DHT22;70897;52.464;13.428;2023-12-22T12:21:45;10.70;60.20
81488;DHT22;70897;52.464;13.428;2023-12-22T12:24:30;10.90;61.10
81488;DHT22;70897;52.464;13.428;2023-12-22T12:27:19;10.80;59.80
81488;DHT22;70897;52.464;13.428;2023-12-22T12:30:12;9.40;64.20
81488;DHT22;70897;52.464;13.428;2023-12-22T12:33:09;8.90;66.80
81488;DHT22;70897;52.464;13.428;2023-12-22T12:35:56;8.60;69.60
81488;DHT22;70897;52.464;13.428;2023-12-22T12:38:54;8.00;71.20
81488;DHT22;70897;52.464;13.428;2023-12-22T12:41:42;7.60;74.70
81488;DHT22;70897;52.464;13.428;2023-12-22T12:44:30;7.30;77.30
81488;DHT22;70897;52.464;13.428;2023-12-22T12:47:18;7.10;78.90
81488;DHT22;70897;52.464;13.428;2023-12-22T12:50:04;6.80;80.80
81488;DHT22;70897;52.464;13.428;2023-12-22T12:52:51;6.50;83.80
81488;DHT22;70897;52.464;13.428;2023-12-22T12:55:36;6.30;85.30
81488;DHT22;70897;52.464;13.428;2023-12-22T12:58:21;6.20;88.60
81488;DHT22;70897;52.464;13.428;2023-12-22T13:01:08;6.10;90.10
81488;DHT22;70897;52.464;13.428;2023-12-22T13:03:55;6.40;89.60
81488;DHT22;70897;52.464;13.428;2023-12-22T13:06:59;6.60;89.40
81488;DHT22;70897;52.464;13.428;2023-12-22T13:09:44;6.50;89.70
81488;DHT22;70897;52.464;13.428;2023-12-22T13:12:32;6.40;90.90
81488;DHT22;70897;52.464;13.428;2023-12-22T13:15:17;6.20;91.10
81488;DHT22;70897;52.464;13.428;2023-12-22T13:18:03;6.20;91.90
81488;DHT22;70897;52.464;13.428;2023-12-22T13:20:48;6.00;91.20
81488;DHT22;70897;52.464;13.428;2023-12-22T13:23:33;5.90;92.60
81488;DHT22;70897;52.464;13.428;2023-12-22T13:26:21;5.80;92.60
81488;DHT22;70897;52.464;13.428;2023-12-22T13:29:07;5.70;92.50
81488;DHT22;70897;52.464;13.428;2023-12-22T13:31:52;5.70;94.30
81488;DHT22;70897;52.464;13.428;2023-12-22T13:34:37;5.70;94.30
81488;DHT22;70897;52.464;13.428;2023-12-22T13:37:22;5.70;93.50
81488;DHT22;70897;52.464;13.428;2023-12-22T13:40:11;5.60;92.80
81488;DHT22;70897;52.464;13.428;2023-12-22T13:42:57;5.60;93.50
81488;DHT22;70897;52.464;13.428;2023-12-22T13:45:42;5.70;92.60
81488;DHT22;70897;52.464;13.428;2023-12-22T13:48:27;5.70;93.00
81488;DHT22;70897;52.464;13.428;2023-12-22T13:51:12;5.70;92.80
81488;DHT22;70897;52.464;13.428;2023-12-22T13:53:58;5.70;93.00
81488;DHT22;70897;52.464;13.428;2023-12-22T13:56:44;5.80;92.70
81488;DHT22;70897;52.464;13.428;2023-12-22T13:59:34;5.60;93.50
81488;DHT22;70897;52.464;13.428;2023-12-22T14:02:22;5.40;93.40
81488;DHT22;70897;52.464;13.428;2023-12-22T14:05:08;5.30;93.90
81488;DHT22;70897;52.464;13.428;2023-12-22T14:07:52;5.30;94.50
81488;DHT22;70897;52.464;13.428;2023-12-22T14:10:45;5.30;94.00
81488;DHT22;70897;52.464;13.428;2023-12-22T14:13:31;5.30;94.10
81488;DHT22;70897;52.464;13.428;2023-12-22T14:16:16;5.10;95.60
81488;DHT22;70897;52.464;13.428;2023-12-22T14:19:01;5.00;97.20
81488;DHT22;70897;52.464;13.428;2023-12-22T14:21:46;4.90;99.10
81488;DHT22;70897;52.464;13.428;2023-12-22T14:24:34;4.80;99.40
81488;DHT22;70897;52.464;13.428;2023-12-22T14:27:19;4.70;99.90
81488;DHT22;70897;52.464;13.428;2023-12-22T14:30:05;4.70;99.90
81488;DHT22;70897;52.464;13.428;2023-12-22T14:32:50;4.60;99.90
81488;DHT22;70897;52.464;13.428;2023-12-22T14:35:36;4.50;99.90
81488;DHT22;70897;52.464;13.428;2023-12-22T14:38:21;4.40;99.90
81488;DHT22;70897;52.464;13.428;2023-12-22T14:41:07;4.30;99.90
81488;DHT22;70897;52.464;13.428;2023-12-22T14:43:51;4.30;99.90
81488;DHT22;70897;52.464;13.428;2023-12-22T14:46:40;4.40;99.90
81488;DHT22;70897;52.464;13.428;2023-12-22T14:49:25;4.30;99.90
81488;DHT22;70897;52.464;13.428;2023-12-22T14:52:10;4.20;99.90
81488;DHT22;70897;52.464;13.428;2023-12-22T14:54:56;4.10;99.90
81488;DHT22;70897;52.464;13.428;2023-12-22T14:57:40;4.10;99.90
81488;DHT22;70897;52.464;13.428;2023-12-22T15:00:25;3.90;99.90
81488;DHT22;70897;52.464;13.428;2023-12-22T15:03:10;4.00;99.90
81488;DHT22;70897;52.464;13.428;2023-12-22T15:05:55;4.00;99.90
81488;DHT22;70897;52.464;13.428;2023-12-22T15:08:40;4.00;99.90
81488;DHT22;70897;52.464;13.428;2023-12-22T15:11:26;4.10;99.90
81488;DHT22;70897;52.464;13.428;2023-12-22T15:14:11;4.10;99.90
81488;DHT22;70897;52.464;13.428;2023-12-22T15:16:56;4.10;99.90
81488;DHT22;70897;52.464;13.428;2023-12-22T15:19:41;4.10;99.90
81488;DHT22;70897;52.464;13.428;2023-12-22T15:22:27;4.00;99.90
81488;DHT22;70897;52.464;13.428;2023-12-22T15:25:12;4.00;99.90
81488;DHT22;70897;52.464;13.428;2023-12-22T15:27:57;4.10;99.90
81488;DHT22;70897;52.464;13.428;2023-12-22T15:30:42;4.00;99.90
81488;DHT22;70897;52.464;13.428;2023-12-22T15:33:27;3.90;99.90
81488;DHT22;70897;52.464;13.428;2023-12-22T15:36:19;3.80;99.90
81488;DHT22;70897;52.464;13.428;2023-12-22T15:39:03;4.00;99.90
81488;DHT22;70897;52.464;13.428;2023-12-22T15:41:49;4.00;99.90
81488;DHT22;70897;52.464;13.428;2023-12-22T15:44:39;3.90;99.90
81488;DHT22;70897;52.464;13.428;2023-12-22T15:47:24;4.00;99.90
81488;DHT22;70897;52.464;13.428;2023-12-22T15:50:10;3.90;99.90
81488;DHT22;70897;52.464;13.428;2023-12-22T15:52:55;3.90;99.90
81488;DHT22;70897;52.464;13.428;2023-12-22T15:55:40;3.90;99.90
81488;DHT22;70897;52.464;13.428;2023-12-22T15:58:25;4.00;99.90
81488;DHT22;70897;52.464;13.428;2023-12-22T16:01:10;4.00;99.90
81488;DHT22;70897;52.464;13.428;2023-12-22T16:03:59;3.90;99.90
81488;DHT22;70897;52.464;13.428;2023-12-22T16:06:44;3.90;99.90
81488;DHT22;70897;52.464;13.428;2023-12-22T16:09:29;3.80;99.90
81488;DHT22;70897;52.464;13.428;2023-12-22T16:12:18;3.80;99.90
81488;DHT22;70897;52.464;13.428;2023-12-22T16:15:07;3.80;99.90
81488;DHT22;70897;52.464;13.428;2023-12-22T16:17:53;3.80;99.90
81488;DHT22;70897;52.464;13.428;2023-12-22T16:20:38;3.80;99.90
81488;DHT22;70897;52.464;13.428;2023-12-22T16:23:23;3.70;99.90
81488;DHT22;70897;52.464;13.428;2023-12-22T16:26:10;3.80;99.90
81488;DHT22;70897;52.464;13.428;2023-12-22T16:28:55;3.70;99.90
81488;DHT22;70897;52.464;13.428;2023-12-22T16:31:40;3.80;99.90
81488;DHT22;70897;52.464;13.428;2023-12-22T16:34:25;3.80;99.90
81488;DHT22;70897;52.464;13.428;2023-12-22T16:37:11;3.80;99.90
81488;DHT22;70897;52.464;13.428;2023-12-22T16:39:57;3.80;99.90
81488;DHT22;70897;52.464;13.428;2023-12-22T16:42:42;3.80;99.90
81488;DHT22;70897;52.464;13.428;2023-12-22T16:45:28;3.80;99.90
81488;DHT22;70897;52.464;13.428;2023-12-22T16:48:13;3.80;99.90
81488;DHT22;70897;52.464;13.428;2023-12-22T16:50:59;3.80;99.90
81488;DHT22;70897;52.464;13.428;2023-12-22T16:53:44;3.70;99.90
81488;DHT22;70897;52.464;13.428;2023-12-22T16:56:29;3.80;99.90
81488;DHT22;70897;52.464;13.428;2023-12-22T16:59:14;3.70;99.90
81488;DHT22;70897;52.464;13.428;2023-12-22T17:01:59;3.80;99.90
81488;DHT22;70897;52.464;13.428;2023-12-22T17:04:44;3.70;99.90
81488;DHT22;70897;52.464;13.428;2023-12-22T17:07:29;3.70;99.90
81488;DHT22;70897;52.464;13.428;2023-12-22T17:10:15;3.70;99.90
81488;DHT22;70897;52.464;13.428;2023-12-22T17:13:00;3.70;99.90
81488;DHT22;70897;52.464;13.428;2023-12-22T17:15:45;3.80;99.90
81488;DHT22;70897;52.464;13.428;2023-12-22T17:18:30;3.90;99.90
81488;DHT22;70897;52.464;13.428;2023-12-22T17:21:16;3.90;99.90
81488;DHT22;70897;52.464;13.428;2023-12-22T17:24:01;3.90;99.90
81488;DHT22;70897;52.464;13.428;2023-12-22T17:26:46;3.80;99.90
81488;DHT22;70897;52.464;13.428;2023-12-22T17:29:31;3.80;99.90
81488;DHT22;70897;52.464;13.428;2023-12-22T17:32:16;3.90;99.90
81488;DHT22;70897;52.464;13.428;2023-12-22T17:35:02;3.90;99.90
81488;DHT22;70897;52.464;13.428;2023-12-22T17:37:47;3.90;99.90